Time;durP1;ratioP1;P1;durP2;ratioP2;P2;SDS_P1;SDS_P2;PMS_P1;PMS_P2;Temp;Humidity;BMP_temperature;BMP_pressure;BME280_temperature;BME280_humidity;BME280_pressure;Samples;Min_cycle;Max_cycle;Signal;HPM_P1;HPM_P2
2023/05/27 04:35:00;;;;;;;24.42;5.47;;;;;;;10.16;76.65;97213.91;2085523;27;20565;-56
2023/05/27 04:36:03;;;;;;;25.50;5.57;;;;;;;10.27;76.59;97227.47;2081030;28;20205;-56
2023/05/27 07:16:53;;;;;;;15.90;4.95;;;;;;;17.17;58.61;97221.00;2105965;27;20555;-58
2023/05/27 07:19:03;;;;;;;33.58;4.80;;;;;;;17.24;58.76;97219.69;2086167;28;20563;-58
2023/05/27 07:21:13;;;;;;;16.65;6.30;;;;;;;17.57;57.88;97228.19;2084045;28;21065;-58
2023/05/27 07:23:25;;;;;;;25.02;5.20;;;;;;;17.57;57.83;97223.78;2084609;28;20584;-60
2023/05/27 07:25:44;;;;;;;20.25;5.15;;;;;;;17.63;56.68;97212.78;2083402;28;20554;-60
2023/05/27 07:26:46;;;;;;;18.48;4.43;;;;;;;17.84;56.50;97220.28;2082730;28;20201;-61
2023/05/27 07:29:00;;;;;;;21.02;4.45;;;;;;;17.86;55.86;97228.09;2091025;28;20576;-60
2023/05/27 07:30:02;;;;;;;18.85;5.65;;;;;;;17.34;56.38;97227.84;2074084;28;20217;-61
2023/05/27 07:31:04;;;;;;;23.88;5.90;;;;;;;17.22;57.36;97226.84;2071905;28;20193;-61
2023/05/27 07:33:27;;;;;;;95.75;51.95;;;;;;;17.78;57.36;97221.53;2097761;27;21076;-59
2023/05/27 07:34:29;;;;;;;103.38;51.88;;;;;;;17.93;57.25;97221.50;2096845;28;20204;-60
2023/05/27 07:35:31;;;;;;;38.95;16.35;;;;;;;18.03;56.99;97225.25;2094477;28;20674;-62
2023/05/27 07:36:33;;;;;;;16.48;5.22;;;;;;;18.06;56.35;97224.19;2093039;28;20200;-62
2023/05/27 07:37:34;;;;;;;21.17;6.43;;;;;;;18.05;56.49;97225.97;2092290;28;20206;-63
2023/05/27 07:40:11;;;;;;;17.02;4.78;;;;;;;18.27;55.53;97220.13;2082525;27;20586;-61
2023/05/27 07:41:13;;;;;;;18.20;5.05;;;;;;;18.35;55.57;97222.25;2078205;28;20208;-61
2023/05/27 07:42:14;;;;;;;26.13;5.38;;;;;;;18.22;55.39;97218.72;2079620;28;20193;-62
2023/05/27 07:43:16;;;;;;;17.05;4.90;;;;;;;18.31;55.21;97210.22;2080905;28;20205;-61
2023/05/27 07:44:18;;;;;;;17.15;5.75;;;;;;;18.07;55.31;97213.53;2077459;28;21186;-61
2023/05/27 07:45:22;;;;;;;23.00;5.55;;;;;;;18.31;54.78;97211.97;2080489;28;20204;-61
2023/05/27 07:46:24;;;;;;;22.58;6.38;;;;;;;18.28;54.59;97213.91;2082026;28;20540;-62
2023/05/27 07:48:51;;;;;;;22.38;5.22;;;;;;;18.07;56.13;97215.34;2086310;28;20552;-62
2023/05/27 07:49:53;;;;;;;22.50;5.30;;;;;;;18.31;56.68;97207.56;2077090;28;20743;-61
2023/05/27 07:50:55;;;;;;;21.27;4.97;;;;;;;18.32;56.63;97211.91;2073432;28;20193;-62
2023/05/27 07:51:57;;;;;;;23.55;4.78;;;;;;;18.50;55.44;97212.44;2073302;28;20602;-63
2023/05/27 07:52:59;;;;;;;14.50;4.82;;;;;;;18.54;54.63;97207.81;2072315;28;20796;-64
2023/05/27 07:54:00;;;;;;;21.90;5.22;;;;;;;18.73;53.78;97212.69;2074566;28;20224;-64
2023/05/27 07:55:02;;;;;;;18.42;5.60;;;;;;;18.86;54.17;97213.50;2069641;28;20217;-64
2023/05/27 07:56:04;;;;;;;24.88;5.35;;;;;;;18.91;53.80;97206.13;2072622;28;20205;-64
2023/05/27 07:57:06;;;;;;;21.10;5.32;;;;;;;19.01;52.97;97197.56;2072147;28;20247;-64
2023/05/27 07:58:08;;;;;;;20.92;4.85;;;;;;;18.97;52.92;97204.88;2072368;28;20204;-64
2023/05/27 07:59:09;;;;;;;14.10;4.57;;;;;;;19.02;53.41;97193.94;2074327;28;20602;-64
2023/05/27 08:00:11;;;;;;;22.65;6.32;;;;;;;19.39;52.97;97205.44;2083497;28;20676;-64
2023/05/27 08:01:13;;;;;;;16.40;3.78;;;;;;;19.54;52.67;97205.25;2080369;28;20189;-64
2023/05/27 08:02:15;;;;;;;15.48;4.80;;;;;;;19.37;52.83;97199.38;2074247;28;20205;-64
2023/05/27 08:03:16;;;;;;;13.82;5.47;;;;;;;19.04;53.44;97198.16;2073310;28;20204;-62
2023/05/27 08:04:18;;;;;;;20.63;4.53;;;;;;;19.11;52.92;97200.41;2072630;28;20304;-61
2023/05/27 08:05:26;;;;;;;16.60;4.88;;;;;;;19.16;53.46;97190.31;2073882;28;20204;-58
2023/05/27 08:06:27;;;;;;;14.20;4.95;;;;;;;19.29;53.19;97201.75;2073962;28;20197;-58
2023/05/27 08:07:29;;;;;;;16.60;5.45;;;;;;;19.40;53.50;97200.97;2072767;28;20679;-58
2023/05/27 08:08:31;;;;;;;20.35;5.47;;;;;;;19.62;53.21;97187.03;2073814;28;20569;-60
2023/05/27 08:09:32;;;;;;;12.32;4.50;;;;;;;19.76;52.08;97199.28;2088578;28;20232;-60
2023/05/27 08:10:34;;;;;;;15.55;5.00;;;;;;;19.99;51.98;97197.59;2087846;28;20200;-60
2023/05/27 08:11:36;;;;;;;16.23;4.82;;;;;;;20.20;51.41;97195.16;2072802;28;20660;-59
2023/05/27 08:12:38;;;;;;;18.75;4.82;;;;;;;20.26;51.70;97187.69;2073192;28;20354;-59
2023/05/27 08:13:40;;;;;;;20.80;5.65;;;;;;;19.96;51.93;97176.63;2088428;28;20216;-60
2023/05/27 08:14:42;;;;;;;16.15;5.47;;;;;;;20.21;51.64;97194.19;2085075;28;20367;-60
2023/05/27 08:15:43;;;;;;;17.33;5.57;;;;;;;19.50;52.33;97183.47;2070452;28;20194;-59
2023/05/27 08:16:45;;;;;;;16.45;5.45;;;;;;;18.89;52.36;97178.06;2073450;28;20228;-59
2023/05/27 08:17:46;;;;;;;17.17;4.88;;;;;;;18.60;53.07;97196.78;2073802;28;20201;-60
2023/05/27 08:18:49;;;;;;;23.25;4.60;;;;;;;18.88;53.27;97184.28;2072230;28;20190;-59
2023/05/27 08:19:51;;;;;;;23.60;5.63;;;;;;;19.46;53.27;97203.16;2072093;28;20221;-60
2023/05/27 08:20:52;;;;;;;17.02;6.25;;;;;;;19.80;52.58;97197.25;2071388;28;20231;-59
2023/05/27 08:21:55;;;;;;;14.02;4.63;;;;;;;19.63;52.77;97186.06;2074223;28;20193;-59
2023/05/27 08:22:57;;;;;;;19.95;5.47;;;;;;;19.42;51.70;97191.94;2070035;28;20284;-60
2023/05/27 08:24:00;;;;;;;17.90;5.18;;;;;;;19.09;52.29;97185.47;2070257;28;20260;-60
2023/05/27 08:25:01;;;;;;;14.77;5.20;;;;;;;19.61;52.30;97187.97;2073258;28;20760;-59
2023/05/27 08:26:03;;;;;;;19.02;4.53;;;;;;;19.68;51.94;97194.53;2071074;28;20209;-59
2023/05/27 08:27:07;;;;;;;19.50;5.78;;;;;;;18.30;53.41;97195.28;2073340;28;20197;-59
2023/05/27 08:28:09;;;;;;;24.77;5.88;;;;;;;17.94;53.65;97170.34;2072294;28;20332;-59
2023/05/27 08:29:11;;;;;;;31.48;5.20;;;;;;;18.60;53.72;97176.50;2070730;28;20568;-59
2023/05/27 08:30:13;;;;;;;15.20;4.90;;;;;;;18.63;53.77;97182.50;2073431;28;20198;-60
2023/05/27 08:31:15;;;;;;;23.52;6.35;;;;;;;18.44;52.92;97181.97;2072344;28;20657;-60
2023/05/27 08:32:16;;;;;;;49.20;21.88;;;;;;;18.56;53.58;97182.09;2070797;28;20256;-59
2023/05/27 08:33:18;;;;;;;79.18;41.92;;;;;;;19.02;52.49;97157.75;2069597;28;20206;-59
2023/05/27 08:34:20;;;;;;;25.00;5.90;;;;;;;18.76;52.46;97178.91;2069260;28;20288;-59
2023/05/27 08:35:21;;;;;;;17.40;5.25;;;;;;;18.31;54.22;97178.47;2073290;28;20194;-59
2023/05/27 08:36:23;;;;;;;16.23;4.63;;;;;;;17.92;55.28;97185.44;2074065;28;20420;-59
2023/05/27 08:37:25;;;;;;;19.27;6.32;;;;;;;18.32;53.92;97182.81;2074366;28;20197;-59
2023/05/27 08:38:26;;;;;;;14.68;5.28;;;;;;;18.16;54.42;97179.53;2074126;28;20612;-59
2023/05/27 08:39:27;;;;;;;25.90;5.97;;;;;;;18.36;54.77;97178.16;2074458;28;20194;-59
2023/05/27 08:40:29;;;;;;;19.17;5.95;;;;;;;18.92;53.64;97175.25;2074047;28;20201;-59
2023/05/27 08:41:31;;;;;;;15.52;5.13;;;;;;;19.39;52.04;97180.75;2070196;28;20197;-59
2023/05/27 08:42:33;;;;;;;16.85;5.38;;;;;;;19.58;51.27;97177.63;2069715;28;20201;-59
2023/05/27 08:43:35;;;;;;;15.25;5.60;;;;;;;19.94;51.62;97178.53;2071710;28;20190;-60
2023/05/27 08:44:37;;;;;;;16.75;5.18;;;;;;;19.62;51.44;97179.09;2069113;28;20623;-59
2023/05/27 08:45:40;;;;;;;27.77;5.57;;;;;;;19.48;52.34;97185.38;2072367;28;20219;-59
2023/05/27 08:46:42;;;;;;;18.95;5.72;;;;;;;19.89;51.65;97170.91;2073206;28;20244;-59
2023/05/27 08:47:44;;;;;;;13.25;5.15;;;;;;;20.16;50.78;97174.28;2066357;28;20198;-59
2023/05/27 08:48:47;;;;;;;22.70;5.60;;;;;;;20.21;51.08;97166.81;2060869;28;20250;-60
2023/05/27 08:49:48;;;;;;;22.40;5.18;;;;;;;20.36;49.89;97173.59;2076545;28;20308;-59
2023/05/27 08:50:50;;;;;;;19.65;5.60;;;;;;;19.47;51.42;97172.25;2072609;28;20194;-59
2023/05/27 08:51:53;;;;;;;14.18;5.07;;;;;;;19.96;51.70;97176.63;2072280;28;20198;-59
2023/05/27 08:52:55;;;;;;;19.23;5.95;;;;;;;19.84;51.43;97166.94;2076373;28;20193;-60
2023/05/27 08:53:57;;;;;;;14.40;5.05;;;;;;;20.35;51.02;97171.06;2076937;28;20598;-59
2023/05/27 08:54:59;;;;;;;20.80;5.05;;;;;;;19.97;51.41;97165.06;2069193;28;20304;-60
2023/05/27 08:56:01;;;;;;;18.90;5.30;;;;;;;19.60;52.33;97162.44;2069917;28;20264;-59
2023/05/27 08:57:07;;;;;;;12.50;5.40;;;;;;;20.30;51.31;97174.09;2073433;28;20676;-59
2023/05/27 08:58:10;;;;;;;15.23;5.93;;;;;;;19.33;51.32;97176.72;2077151;28;20229;-59
2023/05/27 08:59:12;;;;;;;20.35;6.15;;;;;;;18.85;53.34;97169.47;2076108;28;20276;-60
2023/05/27 09:00:14;;;;;;;22.48;6.22;;;;;;;19.51;52.40;97163.97;2065381;28;20245;-59
2023/05/27 09:01:18;;;;;;;18.73;5.30;;;;;;;20.05;51.12;97172.44;2071308;28;20205;-59
2023/05/27 09:02:21;;;;;;;14.90;4.68;;;;;;;20.44;51.42;97167.72;2071692;28;20289;-59
2023/05/27 09:03:23;;;;;;;34.85;6.68;;;;;;;20.29;50.44;97167.09;2068392;28;20204;-59
2023/05/27 09:04:25;;;;;;;20.15;4.50;;;;;;;19.46;51.27;97163.44;2063496;28;20260;-59
2023/05/27 09:05:28;;;;;;;18.88;4.60;;;;;;;19.70;51.99;97171.41;2082384;28;20250;-59
2023/05/27 09:06:30;;;;;;;20.80;5.03;;;;;;;20.34;51.32;97170.25;2081241;28;20197;-59
2023/05/27 09:07:32;;;;;;;21.25;5.47;;;;;;;19.86;51.28;97165.03;2064351;28;20194;-59
2023/05/27 09:08:33;;;;;;;27.98;6.28;;;;;;;19.56;51.59;97158.34;2064835;28;20290;-59
2023/05/27 09:09:57;;;;;;;18.98;6.00;;;;;;;19.03;53.16;97166.53;2066848;28;20221;-59
2023/05/27 09:11:00;;;;;;;19.75;4.82;;;;;;;19.61;53.43;97169.44;2066827;28;20198;-60
2023/05/27 09:12:03;;;;;;;24.73;7.43;;;;;;;19.75;50.83;97168.44;2066730;28;20198;-60
2023/05/27 09:13:05;;;;;;;25.23;6.38;;;;;;;19.80;50.73;97176.88;2068594;28;20220;-59
2023/05/27 09:14:06;;;;;;;18.13;5.78;;;;;;;19.57;52.13;97165.34;2068263;28;20335;-60
2023/05/27 09:15:08;;;;;;;18.40;5.65;;;;;;;19.79;52.09;97167.22;2065705;28;20238;-59
2023/05/27 09:16:10;;;;;;;14.57;4.57;;;;;;;19.92;51.75;97134.56;2065362;28;20457;-60
2023/05/27 09:17:11;;;;;;;17.67;5.35;;;;;;;20.69;51.39;97166.66;2067982;28;20328;-60
2023/05/27 09:18:13;;;;;;;15.35;5.30;;;;;;;20.59;49.42;97168.34;2070187;28;20203;-59
2023/05/27 09:19:18;;;;;;;23.45;5.25;;;;;;;20.17;51.04;97160.06;2068125;28;20204;-60
2023/05/27 09:20:25;;;;;;;21.23;5.50;;;;;;;20.87;50.73;97168.88;2066770;28;20210;-60
2023/05/27 09:21:27;;;;;;;15.65;4.82;;;;;;;19.98;51.43;97156.13;2067573;28;20198;-61
2023/05/27 09:22:30;;;;;;;23.38;6.63;;;;;;;19.94;51.26;97161.81;2068714;28;20677;-59
2023/05/27 09:23:37;;;;;;;21.05;5.63;;;;;;;19.73;51.95;97157.94;2068052;28;20206;-60
2023/05/27 09:24:39;;;;;;;15.77;4.88;;;;;;;19.93;51.74;97155.63;2066398;28;20218;-59
2023/05/27 09:25:41;;;;;;;15.60;5.25;;;;;;;19.64;51.39;97155.13;2069156;28;20680;-59
2023/05/27 09:26:43;;;;;;;18.08;5.40;;;;;;;20.02;50.87;97159.41;2069033;28;20190;-60
2023/05/27 09:27:45;;;;;;;32.42;15.38;;;;;;;20.79;50.30;97152.75;2067145;28;20653;-60
2023/05/27 09:28:47;;;;;;;21.50;6.70;;;;;;;20.80;49.14;97157.91;2068011;28;20225;-59
2023/05/27 09:29:48;;;;;;;17.88;6.32;;;;;;;20.53;49.37;97158.22;2065224;28;20313;-59
2023/05/27 09:31:04;;;;;;;19.17;5.80;;;;;;;19.99;50.58;97149.88;2067666;28;20221;-59
2023/05/27 09:32:08;;;;;;;18.77;5.38;;;;;;;20.23;51.49;97143.69;2068024;28;20194;-59
2023/05/27 09:33:09;;;;;;;19.73;7.65;;;;;;;20.88;50.86;97154.66;2064155;28;20713;-59
2023/05/27 09:34:16;;;;;;;19.55;6.32;;;;;;;21.49;50.58;97156.88;2065279;28;20241;-60
2023/05/27 09:35:18;;;;;;;17.67;5.75;;;;;;;21.20;49.88;97162.75;2067879;28;20205;-60
2023/05/27 09:36:22;;;;;;;33.47;12.65;;;;;;;21.46;48.80;97162.44;2066860;28;20281;-59
2023/05/27 09:37:34;;;;;;;57.83;33.00;;;;;;;21.73;47.75;97163.84;2068486;28;20664;-59
2023/05/27 09:38:36;;;;;;;26.40;11.63;;;;;;;22.01;47.31;97149.13;2065405;28;20229;-60
2023/05/27 09:39:38;;;;;;;21.85;6.15;;;;;;;21.37;47.76;97148.09;2065067;28;20685;-60
2023/05/27 09:40:44;;;;;;;16.77;4.53;;;;;;;21.98;49.20;97144.06;2068294;28;20862;-60
2023/05/27 09:41:56;;;;;;;15.90;4.88;;;;;;;22.39;47.94;97149.56;2067605;28;20202;-60
2023/05/27 09:42:57;;;;;;;16.83;5.90;;;;;;;22.51;46.61;97155.66;2068169;28;20236;-60
2023/05/27 09:44:00;;;;;;;23.27;6.03;;;;;;;22.80;47.13;97147.84;2066932;28;20207;-60
2023/05/27 09:45:04;;;;;;;14.52;5.40;;;;;;;21.18;48.62;97156.69;2066517;28;20221;-59
2023/05/27 09:46:11;;;;;;;17.45;5.35;;;;;;;21.25;49.88;97158.88;2064823;28;20209;-59
2023/05/27 09:47:15;;;;;;;13.48;5.45;;;;;;;21.03;48.37;97153.44;2067306;28;20314;-59
2023/05/27 09:48:18;;;;;;;26.52;5.15;;;;;;;20.71;49.27;97156.00;2066829;28;20283;-59
2023/05/27 09:49:21;;;;;;;17.10;6.50;;;;;;;21.17;49.47;97155.00;2067375;28;20853;-59
2023/05/27 09:50:22;;;;;;;18.08;6.30;;;;;;;21.65;48.54;97140.56;2066741;28;20204;-59
2023/05/27 09:51:28;;;;;;;14.50;5.10;;;;;;;22.13;48.83;97146.41;2066163;28;20205;-59
2023/05/27 09:52:31;;;;;;;14.45;6.03;;;;;;;22.29;48.46;97148.63;2067527;28;20280;-59
2023/05/27 09:53:37;;;;;;;14.77;5.43;;;;;;;22.68;47.90;97146.22;2067528;28;20202;-59
2023/05/27 09:54:39;;;;;;;19.65;5.03;;;;;;;22.96;46.53;97149.16;2067206;28;20218;-58
2023/05/27 09:55:42;;;;;;;17.75;5.30;;;;;;;22.51;48.00;97145.00;2066851;28;20203;-59
2023/05/27 09:56:45;;;;;;;16.70;5.00;;;;;;;22.96;47.76;97150.00;2066802;28;20289;-59
2023/05/27 09:57:47;;;;;;;10.98;5.00;;;;;;;23.00;47.10;97139.91;2066015;28;20684;-59
2023/05/27 09:58:50;;;;;;;17.88;5.65;;;;;;;23.05;47.19;97145.69;2064780;28;20241;-59
2023/05/27 09:59:51;;;;;;;22.25;5.85;;;;;;;23.15;46.78;97148.41;2067237;28;20321;-59
2023/05/27 10:00:55;;;;;;;21.35;5.28;;;;;;;23.45;46.67;97149.31;2061028;28;20202;-60
2023/05/27 10:02:00;;;;;;;24.42;5.45;;;;;;;23.54;45.18;97143.19;2077712;28;20212;-60
2023/05/27 10:03:03;;;;;;;19.48;4.68;;;;;;;23.44;46.57;97140.50;2080772;28;20328;-60
2023/05/27 10:04:05;;;;;;;14.95;5.55;;;;;;;23.23;47.05;97143.25;2066632;28;20197;-60
2023/05/27 10:05:07;;;;;;;14.40;5.00;;;;;;;23.26;47.16;97148.31;2065063;28;20237;-60
2023/05/27 10:06:14;;;;;;;17.10;4.32;;;;;;;22.76;47.35;97132.25;2067004;28;20195;-58
2023/05/27 10:07:18;;;;;;;13.63;5.07;;;;;;;22.77;47.54;97140.09;2076065;28;20237;-58
2023/05/27 10:08:28;;;;;;;19.38;6.03;;;;;;;23.29;46.76;97142.69;2077744;28;20205;-58
2023/05/27 10:09:31;;;;;;;21.00;5.55;;;;;;;23.28;45.40;97140.19;2065485;28;22952;-58
2023/05/27 10:10:32;;;;;;;17.75;5.35;;;;;;;23.28;45.66;97135.69;2068797;28;20305;-58
2023/05/27 10:11:38;;;;;;;16.30;5.90;;;;;;;23.62;45.59;97124.66;2067705;28;20288;-58
2023/05/27 10:12:42;;;;;;;19.77;5.30;;;;;;;24.01;45.99;97125.69;2067949;28;20276;-58
2023/05/27 10:13:45;;;;;;;15.57;5.80;;;;;;;23.29;45.03;97137.38;2066702;28;20245;-58
2023/05/27 10:14:47;;;;;;;19.85;5.90;;;;;;;23.56;45.28;97138.53;2066050;28;20244;-58
2023/05/27 10:15:52;;;;;;;16.38;5.03;;;;;;;24.04;45.34;97126.25;2062923;28;20945;-58
2023/05/27 10:16:56;;;;;;;20.50;5.22;;;;;;;23.98;45.37;97125.97;2066394;28;20658;-58
2023/05/27 10:18:10;;;;;;;15.20;5.47;;;;;;;23.94;46.02;97122.75;2065465;28;20535;-58
2023/05/27 10:19:11;;;;;;;16.38;5.20;;;;;;;24.11;45.14;97131.84;2066858;28;20226;-58
2023/05/27 10:20:27;;;;;;;17.65;6.13;;;;;;;24.13;45.22;97128.06;2063398;28;20206;-58
2023/05/27 10:21:31;;;;;;;15.88;5.07;;;;;;;24.26;45.58;97126.94;2064534;28;20198;-60
2023/05/27 10:22:43;;;;;;;15.98;5.15;;;;;;;24.34;45.22;97131.56;2083128;28;20287;-59
2023/05/27 10:23:55;;;;;;;13.10;5.28;;;;;;;24.08;44.45;97127.66;2077383;28;20669;-59
2023/05/27 10:25:13;;;;;;;18.65;5.60;;;;;;;23.62;45.10;97132.66;2065695;28;20293;-59
2023/05/27 10:26:14;;;;;;;18.13;5.70;;;;;;;23.80;45.57;97127.47;2066787;28;20211;-60
2023/05/27 10:27:16;;;;;;;14.82;5.82;;;;;;;24.23;46.22;97122.72;2069188;28;20642;-59
2023/05/27 10:28:39;;;;;;;21.10;4.88;;;;;;;24.62;44.86;97130.66;2063140;28;20252;-59
2023/05/27 10:29:41;;;;;;;20.40;6.28;;;;;;;23.85;44.54;97129.75;2062978;28;20233;-59
2023/05/27 10:30:46;;;;;;;24.67;5.20;;;;;;;22.85;45.93;97125.28;2066398;28;20260;-59
2023/05/27 10:31:52;;;;;;;16.83;5.30;;;;;;;22.52;47.32;97116.59;2068295;28;20371;-59
2023/05/27 10:32:54;;;;;;;15.60;5.43;;;;;;;23.21;46.25;97123.06;2065442;28;20434;-59
2023/05/27 10:33:57;;;;;;;15.25;5.07;;;;;;;23.60;45.89;97123.97;2063110;28;20202;-59
2023/05/27 10:34:59;;;;;;;15.68;5.55;;;;;;;24.01;46.14;97112.34;2079258;28;20588;-60
2023/05/27 10:36:16;;;;;;;13.90;5.35;;;;;;;24.36;46.28;97117.06;2072376;28;20335;-58
2023/05/27 10:37:21;;;;;;;15.30;6.03;;;;;;;24.93;45.52;97116.22;2067799;28;20292;-58
2023/05/27 10:38:23;;;;;;;18.45;6.03;;;;;;;24.85;43.87;97108.97;2067183;28;20368;-58
2023/05/27 10:39:24;;;;;;;20.10;5.65;;;;;;;25.12;43.42;97107.28;2066893;28;20261;-58
2023/05/27 10:40:29;;;;;;;15.88;5.47;;;;;;;24.84;44.43;97117.13;2065463;28;20681;-58
2023/05/27 10:41:48;;;;;;;17.27;5.10;;;;;;;24.96;44.36;97113.25;2068242;28;20205;-58
2023/05/27 10:43:00;;;;;;;14.27;5.03;;;;;;;24.89;43.96;97118.34;2082216;28;20205;-58
2023/05/27 10:44:01;;;;;;;15.95;5.40;;;;;;;25.47;42.59;97110.19;2073376;28;20201;-58
2023/05/27 10:45:10;;;;;;;20.15;5.70;;;;;;;25.26;43.15;97104.09;2067610;28;20476;-58
2023/05/27 10:46:12;;;;;;;17.10;5.50;;;;;;;25.61;43.76;97117.72;2065472;28;20439;-58
2023/05/27 10:47:14;;;;;;;15.15;4.53;;;;;;;25.57;43.61;97110.97;2066995;28;20285;-58
2023/05/27 10:48:20;;;;;;;18.55;5.25;;;;;;;25.08;43.13;97111.25;2066116;28;20226;-58
2023/05/27 10:49:27;;;;;;;22.63;4.68;;;;;;;25.09;44.28;97104.91;2065785;28;20697;-58
2023/05/27 10:50:33;;;;;;;16.65;5.10;;;;;;;25.51;43.19;97117.78;2066037;28;20213;-58
2023/05/27 10:51:36;;;;;;;19.23;5.43;;;;;;;25.74;42.62;97117.31;2069450;28;20244;-58
2023/05/27 10:52:39;;;;;;;18.25;4.72;;;;;;;25.50;42.22;97121.44;2070127;28;20194;-58
2023/05/27 10:53:40;;;;;;;20.02;5.65;;;;;;;25.68;42.36;97116.09;2066227;28;20633;-58
2023/05/27 10:54:45;;;;;;;14.18;5.15;;;;;;;24.84;44.30;97115.28;2065264;28;20226;-58
2023/05/27 10:55:51;;;;;;;21.65;4.93;;;;;;;25.20;43.83;97109.22;2066186;28;20251;-58
2023/05/27 10:56:53;;;;;;;12.60;4.43;;;;;;;25.27;43.64;97107.63;2063006;28;20576;-58
2023/05/27 10:57:55;;;;;;;16.23;4.72;;;;;;;25.37;43.36;97102.22;2063534;28;20248;-59
2023/05/27 10:59:02;;;;;;;15.38;6.18;;;;;;;25.40;43.61;97100.09;2066267;28;20236;-58
2023/05/27 11:00:08;;;;;;;16.63;5.22;;;;;;;25.85;42.85;97100.19;2065100;28;20637;-59
2023/05/27 11:01:13;;;;;;;26.45;5.10;;;;;;;25.74;42.98;97103.97;2066472;28;20201;-58
2023/05/27 11:02:16;;;;;;;13.45;4.45;;;;;;;26.02;42.17;97101.19;2065411;28;20790;-58
2023/05/27 11:03:25;;;;;;;14.93;6.18;;;;;;;25.76;42.96;97099.28;2066978;28;20195;-58
2023/05/27 11:04:34;;;;;;;12.80;5.45;;;;;;;24.99;44.19;97101.44;2065956;28;20553;-58
2023/05/27 11:05:36;;;;;;;12.68;4.97;;;;;;;24.97;43.50;97101.59;2065766;28;20316;-58
2023/05/27 11:06:37;;;;;;;15.95;5.63;;;;;;;25.49;42.34;97108.22;2065956;28;20205;-59
2023/05/27 11:07:40;;;;;;;73.45;40.72;;;;;;;25.60;42.69;97105.34;2066450;28;20201;-57
2023/05/27 11:08:43;;;;;;;25.20;9.23;;;;;;;24.71;43.43;97102.25;2066122;28;20209;-57
2023/05/27 11:09:45;;;;;;;14.48;6.03;;;;;;;24.68;43.23;97107.06;2065691;28;20218;-57
2023/05/27 11:10:47;;;;;;;11.80;5.82;;;;;;;24.84;42.93;97106.44;2066329;28;20198;-58
2023/05/27 11:11:49;;;;;;;21.10;5.93;;;;;;;24.35;43.17;97102.03;2066183;28;20895;-59
2023/05/27 11:12:52;;;;;;;10.07;4.70;;;;;;;23.85;43.96;97103.06;2064395;28;20252;-58
2023/05/27 11:13:54;;;;;;;20.45;5.80;;;;;;;24.15;44.80;97101.28;2078433;28;20201;-58
2023/05/27 11:14:55;;;;;;;15.75;5.47;;;;;;;25.19;43.64;97108.38;2079589;28;20256;-57
2023/05/27 11:15:57;;;;;;;15.55;5.88;;;;;;;25.66;42.37;97102.06;2065479;28;20662;-57
2023/05/27 11:16:58;;;;;;;12.52;5.10;;;;;;;25.45;42.91;97105.00;2069026;28;20198;-58
2023/05/27 11:18:03;;;;;;;12.40;5.20;;;;;;;26.11;42.15;97102.13;2067686;28;20194;-58
2023/05/27 11:19:05;;;;;;;24.55;4.88;;;;;;;25.87;41.69;97092.88;2066241;28;20206;-58
2023/05/27 11:20:07;;;;;;;19.25;5.60;;;;;;;25.96;42.56;97099.13;2066151;28;20222;-58
2023/05/27 11:21:11;;;;;;;20.63;5.88;;;;;;;26.26;42.12;97092.53;2066762;28;20233;-58
2023/05/27 11:22:14;;;;;;;9.23;4.78;;;;;;;26.54;40.85;97087.84;2065095;28;20718;-58
2023/05/27 11:23:16;;;;;;;17.60;4.68;;;;;;;25.27;41.84;97084.41;2064904;28;20195;-58
2023/05/27 11:24:18;;;;;;;11.63;5.00;;;;;;;26.14;42.21;97089.25;2065063;28;20546;-58
2023/05/27 11:25:20;;;;;;;15.60;5.82;;;;;;;26.62;41.91;97084.38;2068693;28;20550;-58
2023/05/27 11:26:23;;;;;;;17.08;4.75;;;;;;;26.32;42.09;97091.06;2061355;28;20193;-59
2023/05/27 11:27:33;;;;;;;17.02;5.28;;;;;;;26.60;40.58;97078.38;2065003;28;20202;-58
2023/05/27 11:28:35;;;;;;;14.98;4.72;;;;;;;26.96;40.56;97080.91;2066416;28;20549;-58
2023/05/27 11:29:48;;;;;;;13.25;5.57;;;;;;;26.83;40.92;97088.53;2064172;28;20771;-58
2023/05/27 11:30:50;;;;;;;12.65;5.05;;;;;;;26.63;40.66;97072.69;2064883;28;20228;-59
2023/05/27 11:31:54;;;;;;;14.68;4.95;;;;;;;26.85;40.61;97071.28;2067002;28;20198;-59
2023/05/27 11:33:02;;;;;;;14.57;5.82;;;;;;;27.00;40.72;97084.09;2066303;28;20376;-58
2023/05/27 11:34:04;;;;;;;10.60;4.80;;;;;;;27.12;40.38;97079.28;2067546;28;20201;-58
2023/05/27 11:35:13;;;;;;;11.10;4.65;;;;;;;27.04;39.59;97072.88;2062479;28;20230;-58
2023/05/27 11:36:16;;;;;;;15.57;5.25;;;;;;;26.69;39.34;97068.50;2065871;28;20234;-58
2023/05/27 11:37:17;;;;;;;21.60;5.32;;;;;;;26.75;39.40;97072.44;2066388;28;20191;-58
2023/05/27 11:38:19;;;;;;;16.45;5.18;;;;;;;26.78;39.95;97075.63;2065847;28;20199;-59
2023/05/27 11:39:21;;;;;;;12.15;4.95;;;;;;;27.09;39.75;97071.56;2062240;28;20198;-59
2023/05/27 11:40:22;;;;;;;15.20;5.10;;;;;;;26.95;39.43;97068.50;2065397;28;20197;-58
2023/05/27 11:41:26;;;;;;;15.05;5.55;;;;;;;25.13;41.31;97073.38;2066573;28;20589;-59
2023/05/27 11:42:30;;;;;;;13.95;5.03;;;;;;;25.68;40.65;97067.97;2063168;28;20302;-58
2023/05/27 11:43:32;;;;;;;13.65;5.32;;;;;;;24.26;41.63;97063.75;2066840;28;20696;-58
2023/05/27 11:44:34;;;;;;;12.90;6.22;;;;;;;24.25;42.44;97063.88;2061081;28;20256;-58
2023/05/27 11:45:36;;;;;;;12.68;5.15;;;;;;;24.83;43.50;97062.84;2069225;28;20283;-58
2023/05/27 11:46:45;;;;;;;17.35;5.70;;;;;;;25.91;41.84;97065.66;2066930;28;20202;-58
2023/05/27 11:47:50;;;;;;;13.85;5.43;;;;;;;26.23;40.95;97060.72;2063161;28;20285;-58
2023/05/27 11:48:53;;;;;;;14.93;5.95;;;;;;;26.36;40.83;97060.28;2064748;28;20205;-58
2023/05/27 11:49:54;;;;;;;11.98;5.80;;;;;;;25.74;41.55;97058.50;2066244;28;20221;-59
2023/05/27 11:50:57;;;;;;;17.55;4.60;;;;;;;25.52;41.47;97049.97;2063156;28;20260;-60
2023/05/27 11:51:59;;;;;;;16.98;5.38;;;;;;;26.45;41.22;97053.16;2064007;28;20756;-58
2023/05/27 11:53:03;;;;;;;12.07;5.88;;;;;;;26.70;40.55;97049.63;2063126;28;20759;-58
2023/05/27 11:54:05;;;;;;;16.10;5.57;;;;;;;27.00;39.82;97057.31;2063754;28;20230;-58
2023/05/27 11:55:14;;;;;;;14.38;5.40;;;;;;;27.30;39.13;97047.84;2066166;28;20769;-58
2023/05/27 11:56:16;;;;;;;13.15;5.82;;;;;;;27.58;38.05;97049.41;2066799;28;20240;-58
2023/05/27 11:57:17;;;;;;;9.63;4.30;;;;;;;27.62;38.06;97048.09;2066502;28;20198;-58
2023/05/27 11:58:19;;;;;;;12.57;4.47;;;;;;;27.88;38.40;97039.03;2065787;28;20229;-58
2023/05/27 11:59:22;;;;;;;14.43;4.95;;;;;;;27.73;38.75;97038.88;2064595;28;20202;-58
2023/05/27 12:00:25;;;;;;;11.07;4.43;;;;;;;27.92;38.55;97043.91;2066517;28;20336;-59
2023/05/27 12:01:27;;;;;;;51.35;35.85;;;;;;;28.16;38.66;97039.53;2082875;28;20293;-59
2023/05/27 12:02:31;;;;;;;18.38;8.27;;;;;;;27.91;38.42;97036.84;2074318;28;20197;-58
2023/05/27 12:03:34;;;;;;;15.35;5.35;;;;;;;26.80;39.59;97029.94;2065229;28;20285;-58
2023/05/27 12:04:35;;;;;;;15.75;6.85;;;;;;;27.07;39.47;97031.53;2076316;28;20358;-59
2023/05/27 12:05:37;;;;;;;13.48;6.63;;;;;;;27.57;39.09;97028.97;2075049;28;20669;-57
2023/05/27 12:06:38;;;;;;;12.07;6.05;;;;;;;27.29;39.19;97027.41;2065103;28;20198;-60
2023/05/27 12:07:40;;;;;;;14.15;6.18;;;;;;;27.27;38.69;97025.88;2066141;28;20769;-59
2023/05/27 12:08:47;;;;;;;18.65;4.80;;;;;;;26.98;39.85;97024.47;2066195;28;20248;-59
2023/05/27 12:09:49;;;;;;;9.52;4.10;;;;;;;26.96;39.96;97023.81;2066121;28;20987;-60
2023/05/27 12:10:53;;;;;;;15.10;5.13;;;;;;;26.86;38.97;97019.41;2063152;28;20752;-60
2023/05/27 12:11:55;;;;;;;12.20;4.85;;;;;;;26.82;39.22;97023.41;2065748;28;20210;-60
2023/05/27 12:13:04;;;;;;;10.80;5.13;;;;;;;27.04;39.60;97023.81;2065784;28;20203;-60
2023/05/27 12:14:06;;;;;;;13.63;4.63;;;;;;;27.38;39.15;97010.31;2065455;28;20260;-60
2023/05/27 12:15:08;;;;;;;12.35;4.50;;;;;;;27.46;38.30;97014.03;2065628;28;20225;-60
2023/05/27 12:16:12;;;;;;;13.55;5.43;;;;;;;27.71;38.15;97020.25;2066188;28;20694;-60
2023/05/27 12:17:14;;;;;;;12.18;5.15;;;;;;;25.61;39.07;97017.94;2066542;28;20209;-60
2023/05/27 12:18:16;;;;;;;21.60;5.65;;;;;;;25.40;38.82;97017.25;2066077;28;20191;-60
2023/05/27 12:19:18;;;;;;;11.85;5.10;;;;;;;25.84;39.16;97018.28;2062122;28;20634;-59